sensor_id;sensor_type;location;lat;lon;timestamp;P1;durP1;ratioP1;P2;durP2;ratioP2
10333;SDS011;5212;47.892;16.406;2022-11-06T06:16:27;13.87;;;11.17;;
10333;SDS011;5212;47.892;16.406;2022-11-06T06:18:54;14.17;;;11.23;;
10333;SDS011;5212;47.892;16.406;2022-11-06T06:21:22;16.33;;;11.27;;
10333;SDS011;5212;47.892;16.406;2022-11-06T06:23:58;12.97;;;10.30;;
10333;SDS011;5212;47.892;16.406;2022-11-06T06:26:25;14.93;;;11.57;;
10333;SDS011;5212;47.892;16.406;2022-11-06T06:28:53;15.27;;;10.70;;
10333;SDS011;5212;47.892;16.406;2022-11-06T06:31:19;14.73;;;11.80;;
10333;SDS011;5212;47.892;16.406;2022-11-06T06:33:48;13.47;;;11.40;;
10333;SDS011;5212;47.892;16.406;2022-11-06T06:36:15;15.47;;;11.43;;
10333;SDS011;5212;47.892;16.406;2022-11-06T06:38:42;13.07;;;11.13;;
10333;SDS011;5212;47.892;16.406;2022-11-06T06:41:09;15.30;;;11.40;;
10333;SDS011;5212;47.892;16.406;2022-11-06T06:46:40;15.30;;;12.00;;
10333;SDS011;5212;47.892;16.406;2022-11-06T06:49:09;14.27;;;11.70;;
10333;SDS011;5212;47.892;16.406;2022-11-06T06:51:36;13.70;;;11.10;;
10333;SDS011;5212;47.892;16.406;2022-11-06T06:54:03;15.00;;;11.80;;
10333;SDS011;5212;47.892;16.406;2022-11-06T06:56:32;12.90;;;11.30;;
10333;SDS011;5212;47.892;16.406;2022-11-06T06:58:59;12.60;;;10.17;;
10333;SDS011;5212;47.892;16.406;2022-11-06T07:14:28;12.47;;;10.30;;
10333;SDS011;5212;47.892;16.406;2022-11-06T07:16:55;13.50;;;9.53;;
10333;SDS011;5212;47.892;16.406;2022-11-06T07:19:23;11.03;;;9.23;;
10333;SDS011;5212;47.892;16.406;2022-11-06T07:21:50;14.83;;;9.83;;
10333;SDS011;5212;47.892;16.406;2022-11-06T07:24:17;12.93;;;10.40;;
10333;SDS011;5212;47.892;16.406;2022-11-06T07:29:43;10.27;;;8.87;;
10333;SDS011;5212;47.892;16.406;2022-11-06T07:32:10;10.80;;;8.80;;
10333;SDS011;5212;47.892;16.406;2022-11-06T07:34:37;10.83;;;8.97;;
10333;SDS011;5212;47.892;16.406;2022-11-06T07:37:04;12.73;;;10.03;;
10333;SDS011;5212;47.892;16.406;2022-11-06T07:39:31;10.23;;;8.30;;
10333;SDS011;5212;47.892;16.406;2022-11-06T07:41:58;12.23;;;8.90;;
10333;SDS011;5212;47.892;16.406;2022-11-06T07:44:25;12.00;;;8.67;;
10333;SDS011;5212;47.892;16.406;2022-11-06T07:46:54;9.57;;;8.57;;
10333;SDS011;5212;47.892;16.406;2022-11-06T07:49:21;11.13;;;8.77;;
10333;SDS011;5212;47.892;16.406;2022-11-06T07:51:48;10.67;;;8.57;;
10333;SDS011;5212;47.892;16.406;2022-11-06T07:54:14;10.70;;;8.90;;
10333;SDS011;5212;47.892;16.406;2022-11-06T07:56:41;9.73;;;8.37;;
10333;SDS011;5212;47.892;16.406;2022-11-06T07:59:08;11.20;;;8.87;;
10333;SDS011;5212;47.892;16.406;2022-11-06T08:01:36;11.93;;;9.60;;
10333;SDS011;5212;47.892;16.406;2022-11-06T08:04:04;9.07;;;7.77;;
10333;SDS011;5212;47.892;16.406;2022-11-06T08:06:31;11.53;;;9.17;;
10333;SDS011;5212;47.892;16.406;2022-11-06T08:08:59;8.60;;;7.60;;
10333;SDS011;5212;47.892;16.406;2022-11-06T08:11:26;9.33;;;7.87;;
10333;SDS011;5212;47.892;16.406;2022-11-06T08:13:53;9.47;;;7.53;;
10333;SDS011;5212;47.892;16.406;2022-11-06T08:16:20;8.97;;;7.03;;
10333;SDS011;5212;47.892;16.406;2022-11-06T08:18:47;10.40;;;8.03;;
10333;SDS011;5212;47.892;16.406;2022-11-06T08:21:16;10.00;;;7.37;;
10333;SDS011;5212;47.892;16.406;2022-11-06T08:23:43;9.40;;;7.07;;
10333;SDS011;5212;47.892;16.406;2022-11-06T08:26:10;8.80;;;7.10;;
10333;SDS011;5212;47.892;16.406;2022-11-06T08:28:37;9.00;;;7.20;;
10333;SDS011;5212;47.892;16.406;2022-11-06T08:31:05;10.57;;;7.13;;
10333;SDS011;5212;47.892;16.406;2022-11-06T08:33:33;8.07;;;6.63;;
10333;SDS011;5212;47.892;16.406;2022-11-06T08:36:01;9.33;;;6.97;;
10333;SDS011;5212;47.892;16.406;2022-11-06T08:38:30;10.70;;;6.23;;
10333;SDS011;5212;47.892;16.406;2022-11-06T08:40:57;9.10;;;6.20;;
10333;SDS011;5212;47.892;16.406;2022-11-06T08:43:24;7.53;;;6.07;;
10333;SDS011;5212;47.892;16.406;2022-11-06T08:45:51;7.00;;;5.50;;
10333;SDS011;5212;47.892;16.406;2022-11-06T08:48:18;7.33;;;5.87;;
10333;SDS011;5212;47.892;16.406;2022-11-06T08:50:45;7.97;;;5.23;;
10333;SDS011;5212;47.892;16.406;2022-11-06T08:53:12;6.97;;;5.60;;
10333;SDS011;5212;47.892;16.406;2022-11-06T08:55:40;7.13;;;5.70;;
10333;SDS011;5212;47.892;16.406;2022-11-06T08:58:08;8.40;;;5.23;;
10333;SDS011;5212;47.892;16.406;2022-11-06T09:00:35;8.37;;;5.50;;
10333;SDS011;5212;47.892;16.406;2022-11-06T09:03:04;7.07;;;4.90;;
10333;SDS011;5212;47.892;16.406;2022-11-06T09:05:34;6.67;;;4.93;;
10333;SDS011;5212;47.892;16.406;2022-11-06T09:08:01;6.10;;;4.90;;
10333;SDS011;5212;47.892;16.406;2022-11-06T09:10:28;7.47;;;4.77;;
10333;SDS011;5212;47.892;16.406;2022-11-06T09:12:58;6.27;;;3.40;;
10333;SDS011;5212;47.892;16.406;2022-11-06T09:15:25;10.07;;;3.60;;
10333;SDS011;5212;47.892;16.406;2022-11-06T09:17:53;5.57;;;3.57;;
10333;SDS011;5212;47.892;16.406;2022-11-06T09:20:20;5.93;;;3.83;;
10333;SDS011;5212;47.892;16.406;2022-11-06T09:22:48;6.70;;;3.87;;
10333;SDS011;5212;47.892;16.406;2022-11-06T09:25:16;6.77;;;3.70;;
10333;SDS011;5212;47.892;16.406;2022-11-06T09:27:44;6.57;;;3.83;;
10333;SDS011;5212;47.892;16.406;2022-11-06T09:30:15;6.37;;;3.60;;
10333;SDS011;5212;47.892;16.406;2022-11-06T09:32:46;6.53;;;4.20;;
10333;SDS011;5212;47.892;16.406;2022-11-06T09:35:14;4.90;;;3.80;;
10333;SDS011;5212;47.892;16.406;2022-11-06T09:37:41;4.87;;;3.30;;
10333;SDS011;5212;47.892;16.406;2022-11-06T09:40:11;8.43;;;4.60;;
10333;SDS011;5212;47.892;16.406;2022-11-06T09:42:46;7.53;;;4.33;;
10333;SDS011;5212;47.892;16.406;2022-11-06T09:45:22;6.53;;;4.03;;
10333;SDS011;5212;47.892;16.406;2022-11-06T09:47:51;9.17;;;4.63;;
10333;SDS011;5212;47.892;16.406;2022-11-06T09:50:21;7.93;;;4.13;;
10333;SDS011;5212;47.892;16.406;2022-11-06T09:52:51;6.77;;;3.87;;
10333;SDS011;5212;47.892;16.406;2022-11-06T09:55:20;6.13;;;4.33;;
10333;SDS011;5212;47.892;16.406;2022-11-06T09:57:50;5.67;;;4.00;;
10333;SDS011;5212;47.892;16.406;2022-11-06T10:00:20;6.97;;;4.67;;
10333;SDS011;5212;47.892;16.406;2022-11-06T10:02:48;5.07;;;4.03;;
10333;SDS011;5212;47.892;16.406;2022-11-06T10:05:19;6.67;;;4.50;;
10333;SDS011;5212;47.892;16.406;2022-11-06T10:07:51;5.97;;;4.30;;
10333;SDS011;5212;47.892;16.406;2022-11-06T10:10:21;8.17;;;4.20;;
10333;SDS011;5212;47.892;16.406;2022-11-06T10:12:57;6.80;;;4.73;;
10333;SDS011;5212;47.892;16.406;2022-11-06T10:15:30;6.17;;;4.10;;
10333;SDS011;5212;47.892;16.406;2022-11-06T10:18:00;5.40;;;4.20;;
10333;SDS011;5212;47.892;16.406;2022-11-06T10:20:32;6.67;;;4.33;;
10333;SDS011;5212;47.892;16.406;2022-11-06T10:23:03;6.30;;;4.37;;
10333;SDS011;5212;47.892;16.406;2022-11-06T10:25:38;6.17;;;4.07;;
10333;SDS011;5212;47.892;16.406;2022-11-06T10:28:14;5.53;;;4.20;;
10333;SDS011;5212;47.892;16.406;2022-11-06T10:30:56;7.00;;;4.40;;
10333;SDS011;5212;47.892;16.406;2022-11-06T10:33:31;7.07;;;3.83;;
10333;SDS011;5212;47.892;16.406;2022-11-06T10:36:04;5.10;;;3.87;;
10333;SDS011;5212;47.892;16.406;2022-11-06T10:38:34;5.83;;;3.63;;
10333;SDS011;5212;47.892;16.406;2022-11-06T10:41:02;6.03;;;4.27;;
10333;SDS011;5212;47.892;16.406;2022-11-06T10:43:29;5.93;;;4.10;;
10333;SDS011;5212;47.892;16.406;2022-11-06T10:46:00;4.80;;;4.10;;
10333;SDS011;5212;47.892;16.406;2022-11-06T10:48:30;8.50;;;4.80;;
10333;SDS011;5212;47.892;16.406;2022-11-06T10:51:03;6.53;;;4.07;;
10333;SDS011;5212;47.892;16.406;2022-11-06T10:53:45;8.53;;;3.77;;
10333;SDS011;5212;47.892;16.406;2022-11-06T10:56:21;7.33;;;4.43;;
10333;SDS011;5212;47.892;16.406;2022-11-06T10:58:53;6.93;;;4.80;;
10333;SDS011;5212;47.892;16.406;2022-11-06T11:01:22;5.20;;;4.00;;
10333;SDS011;5212;47.892;16.406;2022-11-06T11:03:49;6.00;;;3.97;;
10333;SDS011;5212;47.892;16.406;2022-11-06T11:13:09;6.90;;;4.00;;
10333;SDS011;5212;47.892;16.406;2022-11-06T11:15:46;5.30;;;4.03;;
10333;SDS011;5212;47.892;16.406;2022-11-06T11:23:20;5.77;;;4.03;;
10333;SDS011;5212;47.892;16.406;2022-11-06T11:25:53;8.43;;;4.30;;
10333;SDS011;5212;47.892;16.406;2022-11-06T11:28:23;6.27;;;3.93;;
10333;SDS011;5212;47.892;16.406;2022-11-06T11:30:53;5.73;;;4.00;;
10333;SDS011;5212;47.892;16.406;2022-11-06T11:33:22;5.37;;;3.83;;
10333;SDS011;5212;47.892;16.406;2022-11-06T11:35:50;7.30;;;4.10;;
10333;SDS011;5212;47.892;16.406;2022-11-06T11:41:20;6.47;;;4.00;;
10333;SDS011;5212;47.892;16.406;2022-11-06T11:44:12;10.83;;;4.47;;
10333;SDS011;5212;47.892;16.406;2022-11-06T11:46:44;8.53;;;4.33;;
10333;SDS011;5212;47.892;16.406;2022-11-06T11:49:26;6.37;;;3.90;;
10333;SDS011;5212;47.892;16.406;2022-11-06T11:51:55;6.97;;;3.87;;
10333;SDS011;5212;47.892;16.406;2022-11-06T11:54:27;8.33;;;3.77;;
10333;SDS011;5212;47.892;16.406;2022-11-06T11:56:59;5.33;;;3.37;;
10333;SDS011;5212;47.892;16.406;2022-11-06T11:59:28;5.23;;;3.30;;
10333;SDS011;5212;47.892;16.406;2022-11-06T12:01:56;5.70;;;4.00;;
10333;SDS011;5212;47.892;16.406;2022-11-06T12:04:27;5.33;;;3.23;;
10333;SDS011;5212;47.892;16.406;2022-11-06T12:07:00;4.37;;;2.90;;
10333;SDS011;5212;47.892;16.406;2022-11-06T12:09:32;5.57;;;3.53;;
10333;SDS011;5212;47.892;16.406;2022-11-06T12:12:20;3.30;;;2.30;;
10333;SDS011;5212;47.892;16.406;2022-11-06T12:15:02;4.37;;;3.10;;
10333;SDS011;5212;47.892;16.406;2022-11-06T12:17:33;4.80;;;2.87;;
10333;SDS011;5212;47.892;16.406;2022-11-06T12:20:02;6.80;;;3.43;;
10333;SDS011;5212;47.892;16.406;2022-11-06T12:22:33;6.37;;;3.13;;
10333;SDS011;5212;47.892;16.406;2022-11-06T12:25:14;6.27;;;3.40;;
10333;SDS011;5212;47.892;16.406;2022-11-06T12:27:44;3.80;;;3.20;;
10333;SDS011;5212;47.892;16.406;2022-11-06T12:30:13;5.23;;;3.23;;
10333;SDS011;5212;47.892;16.406;2022-11-06T12:32:47;4.93;;;3.20;;
10333;SDS011;5212;47.892;16.406;2022-11-06T12:35:23;7.20;;;3.17;;
10333;SDS011;5212;47.892;16.406;2022-11-06T12:37:55;4.23;;;3.00;;
10333;SDS011;5212;47.892;16.406;2022-11-06T12:40:29;3.80;;;2.67;;
10333;SDS011;5212;47.892;16.406;2022-11-06T12:45:44;6.40;;;3.40;;
10333;SDS011;5212;47.892;16.406;2022-11-06T12:48:28;5.77;;;2.70;;
10333;SDS011;5212;47.892;16.406;2022-11-06T12:51:07;4.53;;;2.10;;
10333;SDS011;5212;47.892;16.406;2022-11-06T12:53:42;4.23;;;2.40;;
10333;SDS011;5212;47.892;16.406;2022-11-06T12:56:19;4.83;;;2.47;;
10333;SDS011;5212;47.892;16.406;2022-11-06T12:58:51;4.10;;;2.50;;
10333;SDS011;5212;47.892;16.406;2022-11-06T13:01:25;4.37;;;2.40;;
10333;SDS011;5212;47.892;16.406;2022-11-06T13:04:06;3.93;;;2.30;;
10333;SDS011;5212;47.892;16.406;2022-11-06T13:09:54;3.87;;;2.20;;
10333;SDS011;5212;47.892;16.406;2022-11-06T13:12:28;3.40;;;2.10;;
10333;SDS011;5212;47.892;16.406;2022-11-06T13:15:02;3.83;;;1.80;;
10333;SDS011;5212;47.892;16.406;2022-11-06T13:17:38;4.17;;;2.10;;
10333;SDS011;5212;47.892;16.406;2022-11-06T13:20:10;4.77;;;2.30;;
10333;SDS011;5212;47.892;16.406;2022-11-06T13:22:43;4.23;;;2.00;;
10333;SDS011;5212;47.892;16.406;2022-11-06T13:25:16;5.27;;;2.27;;
10333;SDS011;5212;47.892;16.406;2022-11-06T13:27:51;2.30;;;1.80;;
10333;SDS011;5212;47.892;16.406;2022-11-06T13:30:22;4.37;;;2.50;;
10333;SDS011;5212;47.892;16.406;2022-11-06T13:32:51;3.27;;;2.00;;
10333;SDS011;5212;47.892;16.406;2022-11-06T13:35:25;3.37;;;2.00;;
10333;SDS011;5212;47.892;16.406;2022-11-06T13:37:53;4.50;;;1.90;;
10333;SDS011;5212;47.892;16.406;2022-11-06T13:40:22;3.50;;;2.13;;
10333;SDS011;5212;47.892;16.406;2022-11-06T13:42:56;2.90;;;1.80;;
10333;SDS011;5212;47.892;16.406;2022-11-06T13:45:38;3.03;;;1.87;;
10333;SDS011;5212;47.892;16.406;2022-11-06T13:48:13;4.13;;;1.80;;
10333;SDS011;5212;47.892;16.406;2022-11-06T13:50:48;3.27;;;2.00;;
10333;SDS011;5212;47.892;16.406;2022-11-06T13:53:20;5.00;;;2.20;;
10333;SDS011;5212;47.892;16.406;2022-11-06T13:56:05;5.57;;;2.00;;
10333;SDS011;5212;47.892;16.406;2022-11-06T14:01:33;3.23;;;2.00;;
10333;SDS011;5212;47.892;16.406;2022-11-06T14:04:10;5.53;;;2.00;;
10333;SDS011;5212;47.892;16.406;2022-11-06T14:06:49;4.43;;;2.10;;
10333;SDS011;5212;47.892;16.406;2022-11-06T14:09:17;5.23;;;2.77;;
10333;SDS011;5212;47.892;16.406;2022-11-06T14:11:49;4.37;;;2.50;;
10333;SDS011;5212;47.892;16.406;2022-11-06T14:14:24;5.37;;;2.30;;
10333;SDS011;5212;47.892;16.406;2022-11-06T14:20:28;8.80;;;5.43;;
10333;SDS011;5212;47.892;16.406;2022-11-06T14:26:02;6.07;;;1.93;;
10333;SDS011;5212;47.892;16.406;2022-11-06T14:28:33;3.37;;;1.83;;
10333;SDS011;5212;47.892;16.406;2022-11-06T14:31:03;2.40;;;1.37;;
10333;SDS011;5212;47.892;16.406;2022-11-06T14:36:33;2.93;;;1.83;;
10333;SDS011;5212;47.892;16.406;2022-11-06T14:39:11;1.67;;;1.50;;
10333;SDS011;5212;47.892;16.406;2022-11-06T14:44:31;3.13;;;1.87;;
10333;SDS011;5212;47.892;16.406;2022-11-06T14:47:04;4.43;;;1.87;;
10333;SDS011;5212;47.892;16.406;2022-11-06T14:49:34;4.20;;;2.40;;
10333;SDS011;5212;47.892;16.406;2022-11-06T14:52:05;3.83;;;2.00;;
10333;SDS011;5212;47.892;16.406;2022-11-06T14:58:11;4.30;;;3.60;;
10333;SDS011;5212;47.892;16.406;2022-11-06T15:00:42;4.43;;;2.87;;
10333;SDS011;5212;47.892;16.406;2022-11-06T15:03:17;5.70;;;2.90;;
10333;SDS011;5212;47.892;16.406;2022-11-06T15:05:47;3.67;;;2.40;;
10333;SDS011;5212;47.892;16.406;2022-11-06T15:17:18;4.17;;;2.90;;
10333;SDS011;5212;47.892;16.406;2022-11-06T15:19:49;2.87;;;2.57;;
10333;SDS011;5212;47.892;16.406;2022-11-06T15:22:22;6.80;;;4.47;;
10333;SDS011;5212;47.892;16.406;2022-11-06T15:24:53;7.40;;;4.80;;
10333;SDS011;5212;47.892;16.406;2022-11-06T15:27:25;6.17;;;4.70;;
10333;SDS011;5212;47.892;16.406;2022-11-06T15:29:57;5.83;;;4.53;;
10333;SDS011;5212;47.892;16.406;2022-11-06T15:32:28;5.57;;;4.07;;
10333;SDS011;5212;47.892;16.406;2022-11-06T15:35:00;4.20;;;3.50;;
10333;SDS011;5212;47.892;16.406;2022-11-06T15:37:30;5.17;;;4.00;;
10333;SDS011;5212;47.892;16.406;2022-11-06T15:40:05;4.87;;;3.50;;
10333;SDS011;5212;47.892;16.406;2022-11-06T15:42:50;4.00;;;3.23;;
10333;SDS011;5212;47.892;16.406;2022-11-06T15:45:21;5.50;;;3.47;;
10333;SDS011;5212;47.892;16.406;2022-11-06T15:47:52;10.87;;;8.67;;
10333;SDS011;5212;47.892;16.406;2022-11-06T15:53:17;6.23;;;5.30;;
10333;SDS011;5212;47.892;16.406;2022-11-06T15:55:47;6.43;;;5.73;;
10333;SDS011;5212;47.892;16.406;2022-11-06T15:58:24;13.23;;;10.70;;
10333;SDS011;5212;47.892;16.406;2022-11-06T16:04:20;18.13;;;13.33;;
10333;SDS011;5212;47.892;16.406;2022-11-06T16:06:51;16.00;;;12.63;;
10333;SDS011;5212;47.892;16.406;2022-11-06T16:09:19;11.67;;;9.53;;
10333;SDS011;5212;47.892;16.406;2022-11-06T16:11:50;11.77;;;9.43;;
10333;SDS011;5212;47.892;16.406;2022-11-06T16:14:18;12.23;;;8.40;;
10333;SDS011;5212;47.892;16.406;2022-11-06T16:16:46;10.97;;;8.30;;
10333;SDS011;5212;47.892;16.406;2022-11-06T17:44:31;7.80;;;4.87;;
10333;SDS011;5212;47.892;16.406;2022-11-06T17:46:57;5.60;;;4.03;;
10333;SDS011;5212;47.892;16.406;2022-11-06T17:49:26;6.13;;;4.33;;
10333;SDS011;5212;47.892;16.406;2022-11-06T17:51:53;6.60;;;4.93;;
10333;SDS011;5212;47.892;16.406;2022-11-06T17:54:24;8.63;;;6.63;;
10333;SDS011;5212;47.892;16.406;2022-11-06T17:56:52;8.13;;;6.90;;
10333;SDS011;5212;47.892;16.406;2022-11-06T18:12:46;7.27;;;5.90;;
10333;SDS011;5212;47.892;16.406;2022-11-06T18:15:15;8.83;;;6.07;;
10333;SDS011;5212;47.892;16.406;2022-11-06T18:17:42;8.23;;;5.87;;
10333;SDS011;5212;47.892;16.406;2022-11-06T18:20:09;11.43;;;7.17;;
10333;SDS011;5212;47.892;16.406;2022-11-06T18:22:37;12.23;;;7.03;;
10333;SDS011;5212;47.892;16.406;2022-11-06T18:25:07;10.43;;;6.70;;
10333;SDS011;5212;47.892;16.406;2022-11-06T18:35:15;10.30;;;6.90;;
10333;SDS011;5212;47.892;16.406;2022-11-06T18:37:42;11.17;;;6.93;;
10333;SDS011;5212;47.892;16.406;2022-11-06T18:40:10;9.33;;;6.93;;
10333;SDS011;5212;47.892;16.406;2022-11-06T18:42:38;9.63;;;6.60;;
10333;SDS011;5212;47.892;16.406;2022-11-06T18:45:05;10.63;;;6.77;;
10333;SDS011;5212;47.892;16.406;2022-11-06T18:47:32;10.57;;;7.50;;
10333;SDS011;5212;47.892;16.406;2022-11-06T18:49:59;13.03;;;8.00;;
10333;SDS011;5212;47.892;16.406;2022-11-06T18:52:28;11.83;;;7.40;;
10333;SDS011;5212;47.892;16.406;2022-11-06T18:54:56;10.60;;;6.50;;
10333;SDS011;5212;47.892;16.406;2022-11-06T18:57:24;9.57;;;6.50;;
10333;SDS011;5212;47.892;16.406;2022-11-06T18:59:51;8.57;;;6.50;;
10333;SDS011;5212;47.892;16.406;2022-11-06T19:02:18;8.60;;;5.83;;
10333;SDS011;5212;47.892;16.406;2022-11-06T19:04:45;7.77;;;5.77;;
10333;SDS011;5212;47.892;16.406;2022-11-06T19:07:12;9.23;;;6.30;;
10333;SDS011;5212;47.892;16.406;2022-11-06T19:09:40;11.63;;;6.40;;
10333;SDS011;5212;47.892;16.406;2022-11-06T19:12:07;9.87;;;5.77;;
10333;SDS011;5212;47.892;16.406;2022-11-06T19:14:34;8.37;;;5.90;;
10333;SDS011;5212;47.892;16.406;2022-11-06T19:17:01;9.53;;;5.97;;
10333;SDS011;5212;47.892;16.406;2022-11-06T19:19:28;8.57;;;5.40;;
10333;SDS011;5212;47.892;16.406;2022-11-06T19:21:55;7.50;;;5.20;;
10333;SDS011;5212;47.892;16.406;2022-11-06T19:24:22;10.00;;;5.73;;
10333;SDS011;5212;47.892;16.406;2022-11-06T19:26:51;9.13;;;5.57;;
10333;SDS011;5212;47.892;16.406;2022-11-06T19:29:18;9.57;;;6.20;;
10333;SDS011;5212;47.892;16.406;2022-11-06T19:31:45;9.03;;;6.03;;
10333;SDS011;5212;47.892;16.406;2022-11-06T19:34:12;8.47;;;6.27;;
10333;SDS011;5212;47.892;16.406;2022-11-06T19:36:39;8.83;;;6.37;;
10333;SDS011;5212;47.892;16.406;2022-11-06T19:39:06;11.13;;;7.47;;
10333;SDS011;5212;47.892;16.406;2022-11-06T19:41:33;10.00;;;7.60;;
10333;SDS011;5212;47.892;16.406;2022-11-06T19:44:02;12.83;;;7.50;;
10333;SDS011;5212;47.892;16.406;2022-11-06T19:46:29;10.73;;;7.33;;
10333;SDS011;5212;47.892;16.406;2022-11-06T19:48:57;13.30;;;8.03;;
10333;SDS011;5212;47.892;16.406;2022-11-06T19:51:24;11.47;;;7.67;;
10333;SDS011;5212;47.892;16.406;2022-11-06T19:53:51;11.30;;;7.27;;
10333;SDS011;5212;47.892;16.406;2022-11-06T19:56:18;11.20;;;6.80;;
10333;SDS011;5212;47.892;16.406;2022-11-06T19:58:46;11.03;;;6.93;;
10333;SDS011;5212;47.892;16.406;2022-11-06T20:01:15;9.27;;;6.13;;
10333;SDS011;5212;47.892;16.406;2022-11-06T20:03:43;10.17;;;6.17;;
10333;SDS011;5212;47.892;16.406;2022-11-06T20:06:10;7.83;;;5.47;;
10333;SDS011;5212;47.892;16.406;2022-11-06T20:08:37;9.03;;;5.80;;
10333;SDS011;5212;47.892;16.406;2022-11-06T20:11:04;8.17;;;5.10;;
10333;SDS011;5212;47.892;16.406;2022-11-06T20:13:33;8.07;;;4.83;;
10333;SDS011;5212;47.892;16.406;2022-11-06T20:16:03;6.37;;;4.57;;
10333;SDS011;5212;47.892;16.406;2022-11-06T20:18:33;6.20;;;4.53;;
10333;SDS011;5212;47.892;16.406;2022-11-06T20:21:00;8.57;;;4.70;;
10333;SDS011;5212;47.892;16.406;2022-11-06T20:23:28;7.37;;;4.90;;
10333;SDS011;5212;47.892;16.406;2022-11-06T20:25:55;5.80;;;4.53;;
10333;SDS011;5212;47.892;16.406;2022-11-06T20:28:22;6.57;;;4.10;;
10333;SDS011;5212;47.892;16.406;2022-11-06T20:30:49;6.90;;;4.70;;
10333;SDS011;5212;47.892;16.406;2022-11-06T20:33:16;5.23;;;3.80;;
10333;SDS011;5212;47.892;16.406;2022-11-06T20:35:45;7.50;;;4.57;;
10333;SDS011;5212;47.892;16.406;2022-11-06T20:38:12;6.10;;;3.90;;
10333;SDS011;5212;47.892;16.406;2022-11-06T20:40:39;6.53;;;3.90;;
10333;SDS011;5212;47.892;16.406;2022-11-06T20:43:06;5.10;;;3.47;;
10333;SDS011;5212;47.892;16.406;2022-11-06T20:45:33;5.33;;;3.43;;
10333;SDS011;5212;47.892;16.406;2022-11-06T20:48:01;5.83;;;3.67;;
10333;SDS011;5212;47.892;16.406;2022-11-06T20:50:28;5.37;;;3.50;;
10333;SDS011;5212;47.892;16.406;2022-11-06T20:52:56;8.27;;;4.53;;
10333;SDS011;5212;47.892;16.406;2022-11-06T20:55:23;8.17;;;4.87;;
10333;SDS011;5212;47.892;16.406;2022-11-06T20:57:50;6.80;;;4.23;;
10333;SDS011;5212;47.892;16.406;2022-11-06T21:00:18;6.40;;;3.70;;
10333;SDS011;5212;47.892;16.406;2022-11-06T21:02:44;9.30;;;4.00;;
10333;SDS011;5212;47.892;16.406;2022-11-06T21:05:11;7.00;;;3.63;;
10333;SDS011;5212;47.892;16.406;2022-11-06T21:07:39;6.37;;;3.70;;
10333;SDS011;5212;47.892;16.406;2022-11-06T21:10:08;5.30;;;3.70;;
10333;SDS011;5212;47.892;16.406;2022-11-06T21:12:36;4.70;;;3.40;;
10333;SDS011;5212;47.892;16.406;2022-11-06T21:15:03;5.83;;;3.83;;
10333;SDS011;5212;47.892;16.406;2022-11-06T21:32:57;5.27;;;3.50;;
10333;SDS011;5212;47.892;16.406;2022-11-06T21:35:24;6.00;;;3.90;;
10333;SDS011;5212;47.892;16.406;2022-11-06T21:37:53;4.23;;;3.30;;
10333;SDS011;5212;47.892;16.406;2022-11-06T21:40:21;4.53;;;3.30;;
10333;SDS011;5212;47.892;16.406;2022-11-06T21:42:48;4.63;;;3.33;;
10333;SDS011;5212;47.892;16.406;2022-11-06T21:45:15;3.97;;;3.13;;
10333;SDS011;5212;47.892;16.406;2022-11-06T21:47:42;5.33;;;3.60;;
10333;SDS011;5212;47.892;16.406;2022-11-06T21:50:11;5.17;;;3.47;;
10333;SDS011;5212;47.892;16.406;2022-11-06T21:52:39;5.63;;;3.10;;
10333;SDS011;5212;47.892;16.406;2022-11-06T21:55:24;5.97;;;3.20;;
10333;SDS011;5212;47.892;16.406;2022-11-06T21:58:08;4.63;;;3.20;;
10333;SDS011;5212;47.892;16.406;2022-11-06T22:00:51;4.33;;;3.27;;
10333;SDS011;5212;47.892;16.406;2022-11-06T22:03:19;4.70;;;3.27;;
10333;SDS011;5212;47.892;16.406;2022-11-06T22:05:48;5.67;;;3.00;;
10333;SDS011;5212;47.892;16.406;2022-11-06T22:08:15;7.47;;;3.60;;
10333;SDS011;5212;47.892;16.406;2022-11-06T22:10:42;4.87;;;2.93;;
10333;SDS011;5212;47.892;16.406;2022-11-06T22:18:15;5.20;;;3.10;;
10333;SDS011;5212;47.892;16.406;2022-11-06T22:20:42;5.20;;;3.30;;
10333;SDS011;5212;47.892;16.406;2022-11-06T22:23:11;4.50;;;3.10;;
10333;SDS011;5212;47.892;16.406;2022-11-06T22:25:38;4.53;;;3.07;;
10333;SDS011;5212;47.892;16.406;2022-11-06T22:28:05;4.17;;;2.93;;
10333;SDS011;5212;47.892;16.406;2022-11-06T22:30:32;4.00;;;2.90;;
10333;SDS011;5212;47.892;16.406;2022-11-06T22:32:59;6.37;;;3.33;;
10333;SDS011;5212;47.892;16.406;2022-11-06T22:35:26;3.80;;;2.80;;
10333;SDS011;5212;47.892;16.406;2022-11-06T22:37:53;5.40;;;2.97;;
10333;SDS011;5212;47.892;16.406;2022-11-06T22:40:21;4.87;;;3.00;;
10333;SDS011;5212;47.892;16.406;2022-11-06T22:42:48;5.23;;;3.37;;
10333;SDS011;5212;47.892;16.406;2022-11-06T22:45:15;4.83;;;3.00;;
10333;SDS011;5212;47.892;16.406;2022-11-06T22:47:42;3.73;;;2.73;;
10333;SDS011;5212;47.892;16.406;2022-11-06T22:50:10;5.90;;;3.73;;
10333;SDS011;5212;47.892;16.406;2022-11-06T22:52:37;5.10;;;3.10;;
10333;SDS011;5212;47.892;16.406;2022-11-06T22:55:04;4.27;;;3.30;;
10333;SDS011;5212;47.892;16.406;2022-11-06T22:57:33;5.27;;;3.40;;
10333;SDS011;5212;47.892;16.406;2022-11-06T23:00:01;3.93;;;3.00;;
10333;SDS011;5212;47.892;16.406;2022-11-06T23:02:28;5.87;;;3.37;;
10333;SDS011;5212;47.892;16.406;2022-11-06T23:04:55;4.57;;;3.17;;
10333;SDS011;5212;47.892;16.406;2022-11-06T23:07:22;4.90;;;3.33;;
10333;SDS011;5212;47.892;16.406;2022-11-06T23:09:48;3.13;;;2.83;;
10333;SDS011;5212;47.892;16.406;2022-11-06T23:12:15;6.60;;;3.30;;
10333;SDS011;5212;47.892;16.406;2022-11-06T23:14:44;4.43;;;3.10;;
10333;SDS011;5212;47.892;16.406;2022-11-06T23:17:11;4.20;;;3.27;;
10333;SDS011;5212;47.892;16.406;2022-11-06T23:19:38;5.80;;;3.70;;
10333;SDS011;5212;47.892;16.406;2022-11-06T23:22:05;4.13;;;3.20;;
10333;SDS011;5212;47.892;16.406;2022-11-06T23:24:50;3.80;;;3.20;;
10333;SDS011;5212;47.892;16.406;2022-11-06T23:27:18;4.60;;;3.27;;
10333;SDS011;5212;47.892;16.406;2022-11-06T23:29:47;4.53;;;3.10;;
10333;SDS011;5212;47.892;16.406;2022-11-06T23:32:14;4.20;;;3.33;;
10333;SDS011;5212;47.892;16.406;2022-11-06T23:34:43;3.87;;;3.17;;
10333;SDS011;5212;47.892;16.406;2022-11-06T23:37:10;4.93;;;3.30;;
10333;SDS011;5212;47.892;16.406;2022-11-06T23:39:36;5.57;;;3.30;;
10333;SDS011;5212;47.892;16.406;2022-11-06T23:42:04;7.00;;;3.57;;
10333;SDS011;5212;47.892;16.406;2022-11-06T23:44:31;3.57;;;2.70;;
10333;SDS011;5212;47.892;16.406;2022-11-06T23:47:19;6.03;;;4.30;;
10333;SDS011;5212;47.892;16.406;2022-11-06T23:49:45;5.07;;;3.93;;
10333;SDS011;5212;47.892;16.406;2022-11-06T23:52:12;6.37;;;4.40;;
10333;SDS011;5212;47.892;16.406;2022-11-06T23:54:39;6.23;;;5.10;;
10333;SDS011;5212;47.892;16.406;2022-11-06T23:57:06;7.03;;;5.47;;
10333;SDS011;5212;47.892;16.406;2022-11-06T23:59:34;8.77;;;5.90;;
